createdAt,value
2023-05-06T00:02:23.227Z,21.70
2023-05-06T00:05:46.188Z,21.70
2023-05-06T00:09:08.711Z,21.70
2023-05-06T00:12:31.584Z,21.70
2023-05-06T00:15:53.985Z,21.70
2023-05-06T00:19:16.327Z,21.70
2023-05-06T00:22:38.578Z,21.60
2023-05-06T00:26:00.956Z,21.60
2023-05-06T00:29:23.229Z,21.60
2023-05-06T00:32:45.459Z,21.60
2023-05-06T00:36:08.908Z,21.60
2023-05-06T00:39:31.147Z,21.60
2023-05-06T00:42:53.352Z,21.60
2023-05-06T00:46:17.370Z,21.60
2023-05-06T00:49:39.934Z,21.60
2023-05-06T00:53:04.325Z,21.60
2023-05-06T00:56:26.838Z,21.60
2023-05-06T00:59:49.147Z,21.60
2023-05-06T01:03:11.650Z,21.50
2023-05-06T01:07:01.346Z,21.60
2023-05-06T01:10:26.794Z,21.50
2023-05-06T01:13:58.951Z,21.50
2023-05-06T01:17:26.565Z,21.50
2023-05-06T01:20:51.472Z,21.50
2023-05-06T01:24:13.744Z,21.50
2023-05-06T01:27:35.965Z,21.50
2023-05-06T01:31:06.689Z,21.50
2023-05-06T01:34:40.444Z,21.50
2023-05-06T01:38:17.401Z,21.50
2023-05-06T01:41:41.979Z,21.50
2023-05-06T01:45:07.114Z,21.50
2023-05-06T01:48:32.252Z,21.50
2023-05-06T01:51:55.213Z,21.50
2023-05-06T01:55:18.849Z,21.50
2023-05-06T01:58:41.187Z,21.50
2023-05-06T02:02:03.571Z,21.50
2023-05-06T02:05:26.493Z,21.40
2023-05-06T02:08:52.170Z,21.50
2023-05-06T02:12:17.674Z,21.40
2023-05-06T02:15:39.969Z,21.40
2023-05-06T02:19:06.318Z,21.40
2023-05-06T02:22:28.551Z,21.50
2023-05-06T02:25:51.808Z,21.50
2023-05-06T02:29:14.091Z,21.50
2023-05-06T02:32:36.815Z,21.40
2023-05-06T02:35:59.117Z,21.40
2023-05-06T02:39:21.376Z,21.40
2023-05-06T02:42:43.642Z,21.40
2023-05-06T02:46:08.516Z,21.40
2023-05-06T02:49:30.862Z,21.40
2023-05-06T02:52:53.059Z,21.40
2023-05-06T02:56:15.497Z,21.40
2023-05-06T02:59:37.797Z,21.40
2023-05-06T03:03:00.113Z,21.50
2023-05-06T03:06:22.481Z,21.40
2023-05-06T03:09:44.752Z,21.40
2023-05-06T03:13:07.450Z,21.40
2023-05-06T03:16:29.995Z,21.40
2023-05-06T03:19:54.381Z,21.40
2023-05-06T03:23:17.904Z,21.40
2023-05-06T03:26:41.143Z,21.30
2023-05-06T03:30:06.637Z,21.30
2023-05-06T03:33:28.967Z,21.30
2023-05-06T03:36:51.206Z,21.30
2023-05-06T03:40:14.118Z,21.30
2023-05-06T03:43:37.370Z,21.30
2023-05-06T03:47:01.001Z,21.30
2023-05-06T03:50:24.756Z,21.30
2023-05-06T03:53:48.895Z,21.30
2023-05-06T03:57:11.204Z,21.30
2023-05-06T04:00:33.911Z,21.30
2023-05-06T04:03:56.287Z,21.30
2023-05-06T04:07:20.311Z,21.30
2023-05-06T04:10:42.726Z,21.30
2023-05-06T04:14:12.452Z,21.30
2023-05-06T04:17:34.717Z,21.30
2023-05-06T04:20:57.386Z,21.30
2023-05-06T04:24:21.479Z,21.30
2023-05-06T04:27:43.841Z,21.30
2023-05-06T04:31:08.622Z,21.30
2023-05-06T04:34:36.926Z,21.30
2023-05-06T04:38:02.229Z,21.30
2023-05-06T04:41:26.898Z,21.30
2023-05-06T04:44:49.558Z,21.30
2023-05-06T04:48:24.374Z,21.30
2023-05-06T04:51:50.053Z,21.30
2023-05-06T04:55:12.927Z,21.20
2023-05-06T04:58:41.472Z,21.20
2023-05-06T05:02:04.430Z,21.20
2023-05-06T05:05:27.967Z,21.20
2023-05-06T05:08:51.697Z,21.20
2023-05-06T05:12:14.365Z,21.20
2023-05-06T05:15:41.081Z,21.20
2023-05-06T05:19:05.306Z,21.20
2023-05-06T05:22:29.228Z,21.20
2023-05-06T05:25:51.530Z,21.20
2023-05-06T05:29:14.142Z,21.20
2023-05-06T05:32:37.078Z,21.20
2023-05-06T05:35:59.465Z,21.20
2023-05-06T05:39:22.219Z,21.20
2023-05-06T05:42:44.593Z,21.20
2023-05-06T05:46:17.593Z,21.20
2023-05-06T05:49:42.153Z,21.20
2023-05-06T05:53:05.565Z,21.20
2023-05-06T05:56:30.845Z,21.20
2023-05-06T05:59:53.142Z,21.20
2023-05-06T06:03:15.675Z,21.20
2023-05-06T06:06:38.031Z,21.20
2023-05-06T06:10:00.821Z,21.20
2023-05-06T06:13:23.266Z,21.20
2023-05-06T06:16:45.837Z,21.20
2023-05-06T06:20:09.115Z,21.20
2023-05-06T06:23:33.187Z,21.10
2023-05-06T06:26:55.602Z,21.20
2023-05-06T06:30:18.215Z,21.20
2023-05-06T06:33:40.458Z,21.20
2023-05-06T06:37:02.714Z,21.20
2023-05-06T06:40:24.932Z,21.20
2023-05-06T06:43:47.282Z,21.30
2023-05-06T06:47:12.532Z,21.30
2023-05-06T06:50:34.818Z,21.30
2023-05-06T06:53:57.190Z,21.30
2023-05-06T06:57:19.521Z,21.40
2023-05-06T07:00:41.721Z,21.40
2023-05-06T07:04:05.990Z,21.40
2023-05-06T07:07:29.463Z,21.50
2023-05-06T07:10:51.814Z,21.50
2023-05-06T07:14:14.015Z,21.50
2023-05-06T07:17:36.382Z,21.60
2023-05-06T07:20:58.721Z,21.60
2023-05-06T07:24:21.198Z,21.60
2023-05-06T07:27:43.528Z,21.60
2023-05-06T07:31:05.875Z,21.50
2023-05-06T07:34:28.104Z,21.50
2023-05-06T07:37:50.572Z,21.50
2023-05-06T07:41:12.942Z,21.50
2023-05-06T07:44:37.063Z,21.50
2023-05-06T07:47:59.368Z,21.40
2023-05-06T07:51:21.876Z,21.50
2023-05-06T07:54:44.120Z,21.50
2023-05-06T07:58:06.466Z,21.50
2023-05-06T08:01:29.367Z,21.60
2023-05-06T08:04:51.841Z,21.60
2023-05-06T08:08:14.380Z,21.60
2023-05-06T08:11:36.658Z,21.50
2023-05-06T08:14:58.933Z,21.50
2023-05-06T08:18:23.187Z,21.50
2023-05-06T08:21:45.748Z,21.60
2023-05-06T08:25:08.467Z,21.60
2023-05-06T08:28:31.469Z,21.60
2023-05-06T08:31:53.803Z,21.60
2023-05-06T08:35:16.379Z,21.50
2023-05-06T08:38:38.662Z,21.50
2023-05-06T08:42:02.101Z,21.50
2023-05-06T08:45:24.794Z,21.50
2023-05-06T08:48:47.752Z,21.50
2023-05-06T08:52:11.088Z,21.50
2023-05-06T08:55:34.080Z,21.50
2023-05-06T08:58:58.425Z,21.50
2023-05-06T09:02:22.440Z,21.50
2023-05-06T09:05:44.886Z,21.50
2023-05-06T09:09:07.074Z,21.50
2023-05-06T09:12:29.456Z,21.50
2023-05-06T09:15:54.495Z,21.50
2023-05-06T09:19:17.423Z,21.50
2023-05-06T09:22:42.354Z,21.50
2023-05-06T09:26:05.117Z,21.50
2023-05-06T09:29:27.321Z,21.50
2023-05-06T09:32:49.915Z,21.50
2023-05-06T09:36:13.491Z,21.50
2023-05-06T09:39:35.786Z,21.50
2023-05-06T09:42:58.111Z,21.50
2023-05-06T09:46:24.586Z,21.50
2023-05-06T09:49:47.072Z,21.50
2023-05-06T09:53:12.244Z,21.50
2023-05-06T09:56:34.631Z,21.50
2023-05-06T09:59:58.311Z,21.50
2023-05-06T10:03:21.883Z,21.50
2023-05-06T10:06:47.251Z,21.50
2023-05-06T10:10:11.777Z,21.50
2023-05-06T10:13:35.659Z,21.50
2023-05-06T10:16:58.169Z,21.50
2023-05-06T10:20:24.239Z,21.60
2023-05-06T10:24:00.701Z,21.60
2023-05-06T10:27:25.003Z,21.60
2023-05-06T10:30:48.392Z,21.70
2023-05-06T10:34:10.995Z,21.70
2023-05-06T10:37:34.657Z,21.70
2023-05-06T10:40:57.918Z,21.70
2023-05-06T10:44:58.227Z,21.70
2023-05-06T10:48:20.519Z,21.80
2023-05-06T10:51:43.137Z,21.70
2023-05-06T10:55:31.611Z,21.70
2023-05-06T10:58:55.694Z,21.70
2023-05-06T11:02:21.384Z,21.70
2023-05-06T11:05:54.673Z,21.70
2023-05-06T11:09:22.148Z,21.70
2023-05-06T11:12:50.126Z,21.70
2023-05-06T11:16:48.676Z,21.70
2023-05-06T11:20:18.604Z,21.70
2023-05-06T11:23:49.611Z,21.70
2023-05-06T11:27:16.861Z,21.70
2023-05-06T11:30:42.498Z,21.70
2023-05-06T11:34:11.238Z,21.70
2023-05-06T11:37:33.534Z,21.70
2023-05-06T11:40:55.729Z,21.80
2023-05-06T11:44:28.405Z,21.70
2023-05-06T11:47:54.874Z,21.80
2023-05-06T11:51:22.643Z,21.80
2023-05-06T11:54:44.929Z,21.80
2023-05-06T11:58:12.168Z,21.70
2023-05-06T12:01:34.536Z,21.70
2023-05-06T12:04:58.371Z,21.80
2023-05-06T12:08:28.315Z,21.70
2023-05-06T12:11:51.871Z,21.80
2023-05-06T12:15:14.367Z,21.70
2023-05-06T12:18:36.723Z,21.70
2023-05-06T12:22:19.429Z,21.70
2023-05-06T12:25:43.366Z,21.80
2023-05-06T12:29:10.723Z,21.80
2023-05-06T12:32:33.127Z,21.80
2023-05-06T12:36:07.188Z,21.80
2023-05-06T12:39:36.072Z,21.80
2023-05-06T12:42:58.488Z,21.80
2023-05-06T12:46:20.853Z,21.80
2023-05-06T12:49:54.429Z,21.80
2023-05-06T12:53:32.478Z,21.80
2023-05-06T12:56:54.764Z,21.80
2023-05-06T13:00:17.216Z,21.80
2023-05-06T13:03:40.997Z,21.80
2023-05-06T13:07:03.695Z,21.90
2023-05-06T13:10:26.022Z,21.90
2023-05-06T13:13:48.563Z,21.90
2023-05-06T13:17:11.222Z,21.90
2023-05-06T13:20:33.658Z,21.90
2023-05-06T13:23:55.880Z,21.80
2023-05-06T13:27:18.139Z,21.90
2023-05-06T13:30:40.385Z,21.90
2023-05-06T13:34:04.160Z,21.90
2023-05-06T13:37:26.433Z,21.90
2023-05-06T13:40:51.535Z,21.80
2023-05-06T13:44:14.029Z,21.80
2023-05-06T13:47:36.308Z,21.90
2023-05-06T13:50:58.766Z,21.90
2023-05-06T13:54:21.151Z,21.90
2023-05-06T13:57:43.505Z,21.90
2023-05-06T14:01:06.141Z,21.90
2023-05-06T14:04:28.363Z,21.90
2023-05-06T14:07:50.639Z,21.90
2023-05-06T14:11:12.934Z,21.90
2023-05-06T14:14:35.141Z,21.90
2023-05-06T14:17:58.195Z,21.80
2023-05-06T14:21:20.883Z,21.80
2023-05-06T14:24:43.306Z,21.80
2023-05-06T14:28:05.906Z,21.80
2023-05-06T14:31:29.518Z,21.80
2023-05-06T14:34:51.946Z,21.80
2023-05-06T14:38:14.171Z,21.80
2023-05-06T14:41:36.404Z,21.80
2023-05-06T14:44:58.599Z,21.70
2023-05-06T14:48:21.087Z,21.80
2023-05-06T14:51:43.997Z,21.90
2023-05-06T14:55:08.370Z,21.90
2023-05-06T14:58:30.789Z,21.90
2023-05-06T15:01:53.102Z,21.90
2023-05-06T15:05:15.596Z,21.90
2023-05-06T15:08:37.971Z,21.80
2023-05-06T15:12:00.608Z,21.80
2023-05-06T15:15:22.837Z,21.80
2023-05-06T15:18:45.139Z,21.80
2023-05-06T15:22:07.446Z,21.90
2023-05-06T15:25:34.884Z,21.90
2023-05-06T15:28:58.178Z,21.90
2023-05-06T15:32:20.499Z,21.90
2023-05-06T15:35:42.940Z,21.90
2023-05-06T15:39:05.351Z,21.90
2023-05-06T15:42:27.633Z,21.90
2023-05-06T15:45:49.964Z,21.90
2023-05-06T15:49:46.802Z,21.80
2023-05-06T15:52:54.663Z,21.90
2023-05-06T15:56:18.800Z,21.80
2023-05-06T15:59:41.242Z,21.80
2023-05-06T16:03:03.750Z,21.80
2023-05-06T16:06:27.036Z,21.80
2023-05-06T16:09:50.221Z,21.80
2023-05-06T16:13:12.533Z,21.80
2023-05-06T16:16:35.112Z,21.80
2023-05-06T16:19:57.425Z,21.80
2023-05-06T16:23:20.087Z,21.80
2023-05-06T16:26:42.301Z,21.80
2023-05-06T16:30:04.974Z,21.80
2023-05-06T16:33:27.224Z,21.80
2023-05-06T16:36:50.320Z,21.80
2023-05-06T16:40:14.348Z,21.80
2023-05-06T16:43:36.570Z,21.80
2023-05-06T16:46:58.909Z,21.80
2023-05-06T16:50:21.210Z,21.80
2023-05-06T16:53:43.505Z,21.80
2023-05-06T16:57:05.855Z,21.80
2023-05-06T17:00:28.913Z,21.80
2023-05-06T17:03:51.371Z,21.70
2023-05-06T17:07:13.791Z,21.80
2023-05-06T17:10:36.134Z,21.80
2023-05-06T17:13:58.492Z,21.70
2023-05-06T17:17:24.714Z,21.70
2023-05-06T17:20:55.074Z,21.80
2023-05-06T17:24:19.101Z,21.70
2023-05-06T17:27:41.519Z,21.70
2023-05-06T17:31:03.764Z,21.70
2023-05-06T17:34:26.031Z,21.70
2023-05-06T17:37:48.366Z,21.70
2023-05-06T17:41:10.814Z,21.70
2023-05-06T17:44:35.261Z,21.70
2023-05-06T17:47:57.615Z,21.70
2023-05-06T17:51:20.057Z,21.70
2023-05-06T17:54:42.266Z,21.70
2023-05-06T17:58:04.555Z,21.70
2023-05-06T18:01:26.784Z,21.70
2023-05-06T18:04:49.091Z,21.60
2023-05-06T18:08:11.390Z,21.70
2023-05-06T18:11:33.962Z,21.70
2023-05-06T18:14:57.105Z,21.60
2023-05-06T18:18:19.361Z,21.60
2023-05-06T18:21:41.649Z,21.60
2023-05-06T18:25:04.344Z,21.60
2023-05-06T18:28:26.664Z,21.60
2023-05-06T18:31:48.974Z,21.60
2023-05-06T18:35:11.541Z,21.60
2023-05-06T18:38:34.045Z,21.60
2023-05-06T18:41:56.272Z,21.60
2023-05-06T18:45:18.593Z,21.60
2023-05-06T18:48:40.900Z,21.60
2023-05-06T18:52:03.431Z,21.60
2023-05-06T18:55:25.759Z,21.50
2023-05-06T18:58:47.994Z,21.60
2023-05-06T19:02:10.174Z,21.60
2023-05-06T19:05:32.433Z,21.60
2023-05-06T19:08:54.736Z,21.60
2023-05-06T19:12:18.261Z,21.50
2023-05-06T19:15:40.538Z,21.50
2023-05-06T19:19:06.910Z,21.60
2023-05-06T19:22:29.809Z,21.60
2023-05-06T19:25:52.028Z,21.50
2023-05-06T19:29:14.779Z,21.50
2023-05-06T19:32:37.325Z,21.50
2023-05-06T19:35:59.568Z,21.50
2023-05-06T19:39:21.759Z,21.50
2023-05-06T19:42:44.153Z,21.50
2023-05-06T19:46:06.464Z,21.50
2023-05-06T19:49:30.394Z,21.50
2023-05-06T19:52:52.711Z,21.50
2023-05-06T19:56:17.040Z,21.50
2023-05-06T19:59:39.349Z,21.50
2023-05-06T20:03:01.713Z,21.50
2023-05-06T20:06:24.026Z,21.50
2023-05-06T20:09:46.250Z,21.50
2023-05-06T20:13:08.628Z,21.50
2023-05-06T20:16:30.947Z,21.50
2023-05-06T20:19:53.372Z,21.40
2023-05-06T20:23:15.622Z,21.50
2023-05-06T20:26:37.838Z,21.50
2023-05-06T20:30:00.145Z,21.50
2023-05-06T20:33:22.439Z,21.50
2023-05-06T20:36:45.126Z,21.50
2023-05-06T20:40:08.008Z,21.40
2023-05-06T20:43:30.594Z,21.40
2023-05-06T20:46:52.764Z,21.50
2023-05-06T20:50:17.281Z,21.50
2023-05-06T20:53:39.876Z,21.50
2023-05-06T20:57:02.547Z,21.50
2023-05-06T21:00:25.024Z,21.40
2023-05-06T21:03:48.759Z,21.40
2023-05-06T21:07:11.077Z,21.40
2023-05-06T21:10:33.261Z,21.40
2023-05-06T21:13:55.626Z,21.40
2023-05-06T21:17:17.882Z,21.40
2023-05-06T21:20:40.082Z,21.40
2023-05-06T21:24:02.477Z,21.50
2023-05-06T21:27:24.847Z,21.40
2023-05-06T21:30:47.098Z,21.40
2023-05-06T21:34:10.539Z,21.30
2023-05-06T21:37:32.769Z,21.40
2023-05-06T21:40:55.724Z,21.40
2023-05-06T21:44:18.038Z,21.30
2023-05-06T21:47:40.369Z,21.40
2023-05-06T21:51:04.002Z,21.40
2023-05-06T21:54:26.403Z,21.30
2023-05-06T21:57:48.592Z,21.30
2023-05-06T22:01:13.003Z,21.30
2023-05-06T22:04:35.326Z,21.30
2023-05-06T22:07:57.562Z,21.30
2023-05-06T22:11:19.770Z,21.30
2023-05-06T22:14:42.044Z,21.30
2023-05-06T22:18:04.492Z,21.30
2023-05-06T22:21:26.977Z,21.30
2023-05-06T22:24:49.449Z,21.30
2023-05-06T22:28:11.790Z,21.30
2023-05-06T22:31:34.000Z,21.30
2023-05-06T22:34:56.307Z,21.30
2023-05-06T22:38:18.582Z,21.30
2023-05-06T22:41:40.841Z,21.30
2023-05-06T22:45:03.212Z,21.30
2023-05-06T22:48:25.448Z,21.30
2023-05-06T22:51:47.807Z,21.20
2023-05-06T22:55:10.875Z,21.30
2023-05-06T22:58:33.424Z,21.30
2023-05-06T23:01:56.083Z,21.30
2023-05-06T23:05:18.297Z,21.30
2023-05-06T23:08:40.522Z,21.30
2023-05-06T23:12:02.810Z,21.30
2023-05-06T23:15:25.049Z,21.30
2023-05-06T23:18:47.414Z,21.30
2023-05-06T23:22:09.711Z,21.30
2023-05-06T23:25:32.003Z,21.30
2023-05-06T23:28:54.284Z,21.30
2023-05-06T23:32:16.586Z,21.30
2023-05-06T23:35:38.898Z,21.30
2023-05-06T23:39:01.114Z,21.30
2023-05-06T23:42:25.432Z,21.30
2023-05-06T23:45:48.057Z,21.30
2023-05-06T23:49:10.662Z,21.20
2023-05-06T23:52:32.904Z,21.30
2023-05-06T23:55:55.453Z,21.20
2023-05-06T23:59:17.741Z,21.30
